Palmer, Arkansas
Current Conditions -  °F | °C
As of 2:55 AM on Friday 28 Nov 2014 (Local Time) from KSGT Reporting Station
Clear Clear  
Wind Chill: 30°   Ceiling: Unl
Heat Index: 36°   Visibility: 10mi
Dew Point: 30°   Wind: 7mph
Humidity: 81%   Direction: 150°SSE
Pressure: 30.41"   Gusts: NA
Location:  34.5919°N, 91.1409°W
Report Text: KSGT 280855Z AUTO 15006KT 10SM CLR 02/M01 A3041 RMK AO1 57010
Loading
Personal Weather Stations






























Interactive Weather Map New forecast layout! Learn more

10-Day Weather Forecast

Advertisements
Track Severe Weather on mobile